Time;durP1;ratioP1;P1;durP2;ratioP2;P2;SDS_P1;SDS_P2;PMS_P1;PMS_P2;Temp;Humidity;BMP_temperature;BMP_pressure;BME280_temperature;BME280_humidity;BME280_pressure;Samples;Min_cycle;Max_cycle;Signal;HPM_P1;HPM_P2
2023/04/19 00:02:19;;;;;;;6.13;3.58;;;;;;;8.73;50.51;102166.94;4935845;29;20047;-80
2023/04/19 00:04:47;;;;;;;4.35;3.42;;;;;;;8.65;49.04;102162.41;4935648;29;20476;-79
2023/04/19 00:07:13;;;;;;;4.95;3.78;;;;;;;8.61;48.25;102170.16;4936316;29;20071;-79
2023/04/19 00:09:40;;;;;;;4.72;3.30;;;;;;;8.60;47.31;102164.91;4936781;29;20118;-79
2023/04/19 00:12:06;;;;;;;3.28;2.53;;;;;;;8.57;47.54;102162.22;4934496;29;20379;-79
2023/04/19 00:14:33;;;;;;;5.05;3.10;;;;;;;8.56;47.68;102163.94;4945684;29;20079;-79
2023/04/19 00:16:59;;;;;;;3.90;2.97;;;;;;;8.56;47.20;102163.94;4920149;29;20490;-79
2023/04/19 00:19:26;;;;;;;3.45;3.17;;;;;;;8.59;47.67;102161.41;4935226;29;20058;-79
2023/04/19 00:21:52;;;;;;;4.00;3.20;;;;;;;8.58;47.08;102158.78;4920346;29;20378;-80
2023/04/19 00:24:19;;;;;;;4.03;2.80;;;;;;;8.63;46.66;102170.22;4935424;29;20498;-80
2023/04/19 00:26:45;;;;;;;4.00;2.70;;;;;;;8.56;46.01;102163.94;4919639;29;20042;-80
2023/04/19 00:29:12;;;;;;;4.97;2.45;;;;;;;8.49;46.25;102166.41;4938608;29;20075;-80
2023/04/19 00:31:39;;;;;;;2.47;2.25;;;;;;;8.43;46.40;102159.25;4938660;29;20039;-79
2023/04/19 00:34:06;;;;;;;2.55;2.25;;;;;;;8.40;46.82;102164.41;4922898;29;20439;-79
2023/04/19 00:36:32;;;;;;;4.10;2.53;;;;;;;8.36;46.69;102173.00;4938593;29;20071;-80
2023/04/19 00:38:59;;;;;;;3.20;2.15;;;;;;;8.27;46.89;102160.59;4922939;29;20048;-80
2023/04/19 00:41:25;;;;;;;5.50;2.47;;;;;;;8.24;46.96;102170.97;4939053;29;20060;-79
2023/04/19 00:43:52;;;;;;;3.45;2.28;;;;;;;8.18;46.97;102171.69;4922571;29;20418;-80
2023/04/19 00:46:18;;;;;;;4.40;2.50;;;;;;;8.16;47.39;102175.09;4938344;29;20042;-80
2023/04/19 00:48:45;;;;;;;2.88;2.15;;;;;;;8.11;47.43;102170.66;4938281;29;20052;-79
2023/04/19 00:51:12;;;;;;;2.50;2.30;;;;;;;8.13;47.37;102182.84;4922522;29;20042;-78
2023/04/19 00:53:40;;;;;;;2.53;2.15;;;;;;;8.03;47.38;102174.78;4907464;29;20044;-80
2023/04/19 00:56:08;;;;;;;3.95;1.75;;;;;;;7.90;47.29;102173.59;4938109;29;20039;-79
2023/04/19 00:58:35;;;;;;;4.55;2.25;;;;;;;7.84;47.92;102175.16;4938208;29;20131;-79
2023/04/19 01:01:02;;;;;;;3.13;2.17;;;;;;;7.76;48.55;102177.56;4921872;29;20043;-80
2023/04/19 01:03:28;;;;;;;1.90;1.58;;;;;;;7.74;48.31;102174.00;4938129;29;20042;-79
2023/04/19 01:05:56;;;;;;;4.88;2.38;;;;;;;7.62;48.91;102171.94;4921756;29;20047;-79
2023/04/19 01:08:23;;;;;;;3.78;1.90;;;;;;;7.45;49.08;102181.91;4937876;29;20305;-79
2023/04/19 01:10:50;;;;;;;3.42;1.92;;;;;;;7.25;49.74;102190.03;4906180;29;20071;-79
2023/04/19 01:13:16;;;;;;;4.18;2.60;;;;;;;7.08;50.26;102183.44;4939022;29;20099;-79
2023/04/19 01:15:44;;;;;;;4.35;2.42;;;;;;;6.95;50.79;102180.44;4938817;29;20051;-78
2023/04/19 01:18:11;;;;;;;4.05;2.22;;;;;;;6.83;51.09;102189.59;4926821;29;20119;-79
2023/04/19 01:20:37;;;;;;;5.68;2.50;;;;;;;6.71;51.69;102190.09;4922260;29;20478;-79
2023/04/19 01:23:04;;;;;;;2.03;1.83;;;;;;;6.57;51.70;102185.34;4921941;29;20058;-80
2023/04/19 01:25:30;;;;;;;8.82;1.58;;;;;;;6.43;52.17;102190.09;4937710;29;20091;-80
2023/04/19 01:27:57;;;;;;;5.18;1.77;;;;;;;6.32;52.97;102182.75;4937386;29;20047;-79
2023/04/19 01:30:23;;;;;;;2.63;1.60;;;;;;;6.23;53.58;102185.94;4937438;29;20095;-81
2023/04/19 01:32:50;;;;;;;5.55;1.90;;;;;;;6.17;53.56;102186.63;4937477;29;20107;-80
2023/04/19 01:35:16;;;;;;;2.33;2.10;;;;;;;6.08;53.71;102192.38;4921628;29;20058;-79
2023/04/19 01:37:43;;;;;;;4.18;2.78;;;;;;;6.06;54.15;102187.97;4921271;29;20040;-80
2023/04/19 01:40:10;;;;;;;2.83;2.00;;;;;;;5.99;54.30;102186.88;4936130;29;20044;-79
2023/04/19 01:42:36;;;;;;;2.55;2.35;;;;;;;5.89;54.49;102187.34;4936958;29;20044;-80
2023/04/19 01:45:03;;;;;;;3.58;2.42;;;;;;;5.78;55.18;102187.84;4922378;29;20048;-79
2023/04/19 01:47:30;;;;;;;3.00;2.60;;;;;;;5.71;55.46;102192.78;4937444;29;20055;-79
2023/04/19 01:49:59;;;;;;;3.03;2.80;;;;;;;5.67;55.84;102189.19;4944032;29;20039;-79
2023/04/19 01:52:25;;;;;;;4.32;2.03;;;;;;;5.58;56.55;102192.34;4951756;29;20036;-79
2023/04/19 01:54:52;;;;;;;1.88;1.75;;;;;;;5.62;56.75;102190.75;4926277;29;20039;-79
2023/04/19 01:57:18;;;;;;;2.78;2.03;;;;;;;5.57;56.83;102189.69;4937681;29;20036;-79
2023/04/19 01:59:45;;;;;;;2.85;1.77;;;;;;;5.46;56.84;102184.09;4937282;29;20036;-79
2023/04/19 02:02:11;;;;;;;5.75;2.13;;;;;;;5.37;57.38;102174.25;4937163;29;20036;-80
2023/04/19 02:04:38;;;;;;;4.47;1.25;;;;;;;5.29;58.28;102176.56;4921100;29;20043;-80
2023/04/19 02:07:04;;;;;;;1.98;1.40;;;;;;;5.25;58.42;102173.78;4936601;29;20488;-80
2023/04/19 02:09:31;;;;;;;1.98;1.85;;;;;;;5.19;58.58;102171.88;4936987;29;20098;-79
2023/04/19 02:11:57;;;;;;;2.55;2.35;;;;;;;5.11;59.27;102174.16;4906063;29;20039;-80
2023/04/19 02:14:24;;;;;;;2.60;2.40;;;;;;;5.10;59.80;102175.00;4920784;29;20051;-80
2023/04/19 02:16:50;;;;;;;2.10;1.60;;;;;;;5.12;59.89;102181.13;4920762;29;20043;-80
2023/04/19 02:19:16;;;;;;;4.25;1.95;;;;;;;5.13;59.98;102179.41;4936936;29;20124;-80
2023/04/19 02:21:43;;;;;;;3.42;2.05;;;;;;;5.08;59.76;102171.44;4921206;29;20052;-80
2023/04/19 02:24:10;;;;;;;3.05;1.92;;;;;;;5.07;60.25;102173.97;4936851;29;20074;-79
2023/04/19 02:26:36;;;;;;;2.88;1.85;;;;;;;5.03;60.62;102178.19;4936531;29;20040;-79
2023/04/19 02:29:02;;;;;;;5.88;1.70;;;;;;;5.00;61.08;102182.38;4921733;29;20462;-80
2023/04/19 02:31:29;;;;;;;3.53;1.50;;;;;;;5.00;60.87;102182.38;4923487;29;20360;-80
2023/04/19 02:33:55;;;;;;;5.13;1.80;;;;;;;4.94;61.33;102191.69;4955863;29;20050;-79
2023/04/19 02:36:22;;;;;;;4.38;1.73;;;;;;;4.88;61.58;102188.84;4944149;29;20447;-79
2023/04/19 02:38:48;;;;;;;4.97;1.92;;;;;;;4.84;62.09;102194.75;4921457;29;20379;-80
2023/04/19 02:41:15;;;;;;;2.95;1.73;;;;;;;4.85;62.06;102187.84;4921150;29;20537;-79
2023/04/19 02:43:42;;;;;;;8.20;2.50;;;;;;;4.92;62.07;102192.44;4936209;29;20099;-78
2023/04/19 02:46:08;;;;;;;4.80;1.90;;;;;;;4.84;62.18;102194.75;4920268;29;20081;-78
2023/04/19 02:48:37;;;;;;;4.28;2.00;;;;;;;4.75;63.00;102194.38;4936740;29;20467;-79
2023/04/19 02:51:03;;;;;;;2.72;1.55;;;;;;;4.67;63.05;102183.69;4919861;29;20471;-80
2023/04/19 02:53:30;;;;;;;3.45;2.60;;;;;;;4.59;63.86;102192.88;4936306;29;20051;-79
2023/04/19 02:55:57;;;;;;;4.95;2.25;;;;;;;4.55;64.09;102198.75;4920816;29;20047;-79
2023/04/19 02:58:23;;;;;;;2.40;1.80;;;;;;;4.50;64.23;102189.91;4938049;29;20039;-79
2023/04/19 03:00:49;;;;;;;2.65;1.70;;;;;;;4.46;64.70;102187.19;4936618;29;20051;-79
2023/04/19 03:03:16;;;;;;;3.58;2.05;;;;;;;4.50;64.94;102192.50;4936018;29;20443;-79
2023/04/19 03:05:42;;;;;;;3.28;1.63;;;;;;;4.41;64.66;102188.72;4936130;29;20049;-80
2023/04/19 03:08:10;;;;;;;3.83;1.55;;;;;;;4.35;65.12;102180.66;4924450;29;20039;-79
2023/04/19 03:10:37;;;;;;;5.85;2.13;;;;;;;4.31;65.39;102189.16;4935846;29;20099;-79
2023/04/19 03:13:03;;;;;;;3.83;2.45;;;;;;;4.28;66.21;102183.84;4920281;29;20066;-79
2023/04/19 03:15:33;;;;;;;2.35;2.15;;;;;;;4.28;65.64;102179.53;4936007;29;20051;-79
2023/04/19 03:17:59;;;;;;;3.08;2.15;;;;;;;4.25;66.19;102184.59;4920231;29;20122;-79
2023/04/19 03:20:26;;;;;;;1.60;1.50;;;;;;;4.24;66.58;102187.13;4935169;29;20047;-80
2023/04/19 03:22:52;;;;;;;2.97;1.70;;;;;;;4.22;66.51;102178.41;4904606;29;20429;-78
2023/04/19 03:25:19;;;;;;;2.03;1.40;;;;;;;4.18;66.97;102182.56;4935398;29;20443;-78
2023/04/19 03:27:46;;;;;;;1.90;1.63;;;;;;;4.12;66.90;102178.00;4936367;29;20046;-80
2023/04/19 03:30:13;;;;;;;4.00;1.85;;;;;;;4.09;67.01;102170.13;4942151;29;20043;-79
2023/04/19 03:32:40;;;;;;;2.80;1.40;;;;;;;4.06;67.16;102171.69;4940437;29;20111;-79
2023/04/19 03:35:06;;;;;;;5.20;1.85;;;;;;;4.04;67.62;102170.72;4935677;29;20036;-79
2023/04/19 03:37:33;;;;;;;5.07;1.98;;;;;;;4.03;68.14;102172.44;4919623;29;20039;-79
2023/04/19 03:40:00;;;;;;;2.17;1.80;;;;;;;4.02;67.74;102168.09;4920421;29;20051;-80
2023/04/19 03:42:26;;;;;;;3.80;1.60;;;;;;;4.00;68.88;102163.66;4935871;29;20050;-79
2023/04/19 03:44:53;;;;;;;3.67;1.55;;;;;;;3.96;68.42;102168.72;4938399;29;20068;-80
2023/04/19 03:47:19;;;;;;;3.03;2.05;;;;;;;3.90;68.79;102170.16;4937825;29;20046;-79
2023/04/19 03:49:45;;;;;;;1.50;1.35;;;;;;;3.84;69.40;102169.88;4935536;29;20098;-80
2023/04/19 03:52:12;;;;;;;4.25;2.22;;;;;;;3.84;69.25;102163.00;4935752;29;20479;-79
2023/04/19 03:54:38;;;;;;;3.08;1.58;;;;;;;3.81;69.92;102168.06;4937618;29;20044;-80
2023/04/19 03:57:05;;;;;;;2.17;1.67;;;;;;;3.73;69.75;102169.41;4934971;29;20052;-80
2023/04/19 03:59:31;;;;;;;3.58;1.92;;;;;;;3.71;70.01;102163.28;4919422;29;20090;-79
2023/04/19 04:01:58;;;;;;;7.18;2.97;;;;;;;3.79;70.83;102173.19;4935306;29;20039;-78
2023/04/19 04:04:24;;;;;;;4.93;1.77;;;;;;;3.81;70.46;102163.75;4939195;29;20043;-79
2023/04/19 04:06:51;;;;;;;2.35;2.15;;;;;;;3.85;70.40;102166.50;4908439;29;20046;-80
2023/04/19 04:09:17;;;;;;;5.82;2.42;;;;;;;3.80;70.55;102168.88;4924166;29;20392;-81
2023/04/19 04:11:44;;;;;;;3.80;2.40;;;;;;;3.81;70.75;102165.47;4939547;29;20091;-80
2023/04/19 04:14:10;;;;;;;3.65;2.33;;;;;;;3.83;71.21;102161.22;4938833;29;20075;-80
2023/04/19 04:16:40;;;;;;;3.25;1.60;;;;;;;3.81;71.19;102170.66;4923300;29;20040;-79
2023/04/19 04:19:06;;;;;;;2.95;1.65;;;;;;;3.79;70.62;102167.09;4923845;29;20039;-79
2023/04/19 04:21:33;;;;;;;2.33;1.67;;;;;;;3.78;71.42;102168.81;4935540;29;20056;-82
2023/04/19 04:24:02;;;;;;;4.88;2.10;;;;;;;3.76;71.60;102162.66;4920482;29;20036;-80
2023/04/19 04:26:32;;;;;;;3.38;2.25;;;;;;;3.73;71.61;102166.81;4920190;29;20047;-79
2023/04/19 04:29:00;;;;;;;2.38;1.60;;;;;;;3.65;72.42;102163.91;4920269;29;20480;-80
2023/04/19 04:31:28;;;;;;;4.63;2.20;;;;;;;3.67;72.74;102163.97;4919789;29;20040;-79
2023/04/19 04:33:54;;;;;;;2.88;2.40;;;;;;;3.62;73.04;102168.94;4919837;29;20048;-78
2023/04/19 04:36:21;;;;;;;2.50;2.00;;;;;;;3.65;73.10;102163.91;4920190;29;20051;-78
2023/04/19 04:38:48;;;;;;;5.75;2.40;;;;;;;3.69;72.82;102171.00;4920019;29;20092;-79
2023/04/19 04:41:15;;;;;;;2.30;2.10;;;;;;;3.72;73.33;102162.47;4920516;29;20065;-78
2023/04/19 04:43:41;;;;;;;2.38;1.75;;;;;;;3.78;72.82;102167.91;4923303;29;20048;-79
2023/04/19 04:46:10;;;;;;;5.47;2.50;;;;;;;3.89;72.58;102168.38;4920390;29;20051;-80
2023/04/19 04:48:37;;;;;;;5.63;2.00;;;;;;;3.92;72.49;102169.38;4920147;29;20040;-79
2023/04/19 04:51:04;;;;;;;2.00;1.80;;;;;;;3.95;72.85;102173.81;4920074;29;20044;-80
2023/04/19 04:53:30;;;;;;;2.88;2.28;;;;;;;3.95;72.54;102171.22;4936919;29;20060;-79
2023/04/19 04:55:56;;;;;;;1.58;1.48;;;;;;;3.97;72.40;102173.06;4932018;29;20044;-78
2023/04/19 04:58:23;;;;;;;3.95;2.47;;;;;;;3.96;72.48;102170.41;4934370;29;20044;-79
2023/04/19 05:00:50;;;;;;;2.28;1.60;;;;;;;3.95;72.61;102169.53;4905367;29;20144;-79
2023/04/19 05:03:16;;;;;;;3.03;1.30;;;;;;;3.96;72.80;102176.50;4920362;29;20459;-78
2023/04/19 05:05:43;;;;;;;2.17;1.88;;;;;;;3.95;72.71;102169.53;4926855;29;20131;-79
2023/04/19 05:08:09;;;;;;;2.08;1.40;;;;;;;3.97;73.00;102170.47;4920606;29;20048;-79
2023/04/19 05:10:36;;;;;;;4.97;2.35;;;;;;;3.94;72.76;102172.94;4919491;29;20044;-79
2023/04/19 05:13:02;;;;;;;3.53;2.58;;;;;;;3.97;73.44;102170.47;4920176;29;20055;-79
2023/04/19 05:15:29;;;;;;;5.93;1.50;;;;;;;3.94;73.12;102175.53;4919420;29;20044;-79
2023/04/19 05:17:56;;;;;;;5.25;2.47;;;;;;;3.95;73.24;102173.81;4903782;29;20455;-78
2023/04/19 05:20:22;;;;;;;2.75;1.65;;;;;;;3.96;73.51;102173.00;4903543;29;20051;-79
2023/04/19 05:22:49;;;;;;;3.33;1.38;;;;;;;3.93;73.58;102178.94;4920404;29;20104;-79
2023/04/19 05:25:15;;;;;;;6.28;2.40;;;;;;;3.88;74.02;102176.97;4919832;29;20471;-79
2023/04/19 05:27:42;;;;;;;4.28;2.03;;;;;;;3.89;74.35;102173.56;4919358;29;20122;-80
2023/04/19 05:30:09;;;;;;;2.90;1.48;;;;;;;3.91;73.91;102171.91;4920022;29;20048;-81
2023/04/19 05:32:35;;;;;;;5.50;2.25;;;;;;;3.92;74.46;102174.56;4921249;29;20059;-81
2023/04/19 05:35:02;;;;;;;8.40;2.00;;;;;;;3.95;74.39;102176.41;4907858;29;20139;-80
2023/04/19 05:37:29;;;;;;;3.30;1.60;;;;;;;4.02;74.61;102172.38;4919537;29;20044;-81
2023/04/19 05:39:56;;;;;;;6.40;2.55;;;;;;;4.08;73.80;102172.63;4921321;29;20044;-81
2023/04/19 05:42:25;;;;;;;3.55;1.70;;;;;;;4.11;73.86;102173.66;4920803;29;20051;-81
2023/04/19 05:44:56;;;;;;;2.50;1.42;;;;;;;4.17;73.48;102169.53;4921017;29;20108;-80
2023/04/19 05:47:24;;;;;;;4.78;1.65;;;;;;;4.22;73.67;102168.03;4922148;29;20075;-80
2023/04/19 05:49:51;;;;;;;5.35;2.22;;;;;;;4.25;73.16;102169.06;4920587;29;20468;-80
2023/04/19 05:52:18;;;;;;;6.30;1.80;;;;;;;4.33;72.94;102161.59;4919755;29;20036;-79
2023/04/19 05:54:46;;;;;;;4.00;2.25;;;;;;;4.42;72.72;102161.97;4919469;29;20114;-80
2023/04/19 05:57:13;;;;;;;3.60;1.88;;;;;;;4.54;72.65;102163.28;4919516;29;20071;-80
2023/04/19 05:59:39;;;;;;;3.10;1.48;;;;;;;4.64;72.09;102163.72;4919298;29;20048;-80
2023/04/19 06:02:07;;;;;;;8.27;3.03;;;;;;;4.75;71.16;102160.66;4919421;29;20123;-80
2023/04/19 06:04:33;;;;;;;3.58;1.58;;;;;;;4.86;70.87;102156.75;4935398;29;20043;-80
2023/04/19 06:07:00;;;;;;;5.00;2.50;;;;;;;4.97;69.89;102155.47;4904062;29;20072;-80
2023/04/19 06:09:26;;;;;;;5.28;1.88;;;;;;;5.05;69.22;102158.34;4920725;29;20043;-80
2023/04/19 06:11:54;;;;;;;4.88;1.92;;;;;;;5.17;69.59;102168.31;4920125;29;20563;-79
2023/04/19 06:14:20;;;;;;;5.88;2.00;;;;;;;5.33;68.78;102156.78;4921064;29;20475;-79
2023/04/19 06:16:47;;;;;;;3.25;1.65;;;;;;;5.47;68.03;102160.78;4919964;29;20044;-81
2023/04/19 06:19:20;;;;;;;4.35;2.58;;;;;;;5.60;67.01;102154.28;4918834;29;20498;-82
2023/04/19 06:21:47;;;;;;;2.10;1.58;;;;;;;5.72;67.04;102153.88;4885375;29;20063;-79
2023/04/19 06:24:13;;;;;;;2.35;2.15;;;;;;;5.85;65.92;102155.16;4899178;29;20048;-80
2023/04/19 06:26:40;;;;;;;3.72;1.73;;;;;;;5.89;65.84;102149.25;4898649;29;20052;-80
2023/04/19 06:29:09;;;;;;;2.85;1.58;;;;;;;5.90;65.57;102151.00;4916275;29;20049;-80
2023/04/19 06:31:35;;;;;;;3.78;1.90;;;;;;;5.92;65.45;102153.69;4915041;29;20036;-80
2023/04/19 06:34:05;;;;;;;2.28;1.85;;;;;;;5.94;65.72;102150.31;4901808;29;20047;-79
2023/04/19 06:36:32;;;;;;;2.58;1.67;;;;;;;6.08;65.50;102147.31;4918161;29;20041;-79
2023/04/19 06:38:58;;;;;;;2.13;1.30;;;;;;;6.24;63.77;102157.38;4901674;29;20425;-80
2023/04/19 06:41:25;;;;;;;5.38;1.38;;;;;;;6.47;62.68;102149.47;4901619;29;20503;-80
2023/04/19 06:43:52;;;;;;;3.10;1.63;;;;;;;6.81;61.39;102145.31;4900705;29;20063;-80
2023/04/19 06:46:18;;;;;;;2.10;1.30;;;;;;;7.21;59.85;102140.38;4885812;29;20476;-80
2023/04/19 06:48:45;;;;;;;3.28;1.50;;;;;;;7.50;58.61;102141.22;4899854;29;20480;-80
2023/04/19 06:51:11;;;;;;;3.33;1.80;;;;;;;7.89;57.50;102135.31;4914232;29;20067;-80
2023/04/19 06:53:38;;;;;;;2.10;1.35;;;;;;;8.32;56.33;102126.78;4898461;29;20049;-80
2023/04/19 06:56:05;;;;;;;3.80;1.55;;;;;;;8.71;52.91;102115.56;4914418;29;20044;-80
2023/04/19 06:58:32;;;;;;;4.80;1.73;;;;;;;8.95;52.81;102128.25;4913876;29;20472;-81
2023/04/19 07:01:00;;;;;;;9.70;2.13;;;;;;;9.22;51.43;102121.88;4913540;29;20041;-80
2023/04/19 07:03:27;;;;;;;3.17;0.80;;;;;;;9.46;49.33;102128.41;4898096;29;20040;-81
2023/04/19 07:05:55;;;;;;;3.63;1.90;;;;;;;9.75;47.74;102124.63;4900174;29;20045;-81
2023/04/19 07:08:24;;;;;;;1.90;1.45;;;;;;;10.00;46.71;102119.81;4899753;29;20045;-80
2023/04/19 07:10:51;;;;;;;7.10;1.45;;;;;;;10.34;46.57;102117.75;4898384;29;20151;-79
2023/04/19 07:13:18;;;;;;;1.65;1.15;;;;;;;10.76;44.89;102116.63;4899670;29;20040;-80
2023/04/19 07:15:45;;;;;;;1.45;1.20;;;;;;;10.80;45.28;102119.31;4899968;29;20048;-79
2023/04/19 07:18:13;;;;;;;9.93;1.88;;;;;;;10.90;44.61;102115.97;4899037;29;20044;-80
2023/04/19 07:20:43;;;;;;;3.00;1.13;;;;;;;10.96;44.17;102112.53;4912635;29;20476;-80
2023/04/19 07:23:10;;;;;;;3.20;1.42;;;;;;;11.03;44.49;102110.00;4918607;29;20063;-81
2023/04/19 07:25:36;;;;;;;2.10;1.23;;;;;;;11.18;44.35;102111.06;4916812;29;20066;-79
2023/04/19 07:28:03;;;;;;;2.95;1.10;;;;;;;11.42;43.82;102106.09;4916972;29;20099;-79
2023/04/19 07:30:30;;;;;;;1.48;1.05;;;;;;;11.86;42.46;102096.94;4901092;29;20059;-80
2023/04/19 07:32:56;;;;;;;3.40;1.02;;;;;;;12.12;41.15;102092.78;4900700;29;20111;-80
2023/04/19 07:35:23;;;;;;;1.27;1.02;;;;;;;12.46;40.98;102091.25;4916286;29;20050;-80
2023/04/19 07:37:49;;;;;;;1.30;1.20;;;;;;;12.72;40.41;102090.53;4917204;29;20071;-79
2023/04/19 07:40:15;;;;;;;3.42;1.75;;;;;;;12.78;39.82;102092.34;4916322;29;20040;-80
2023/04/19 07:42:43;;;;;;;0.95;0.88;;;;;;;12.84;39.51;102087.97;4900554;29;20064;-81
2023/04/19 07:45:10;;;;;;;3.33;1.27;;;;;;;13.04;39.38;102079.31;4916718;29;20047;-81
2023/04/19 07:47:36;;;;;;;2.38;1.20;;;;;;;13.21;38.33;102080.22;4916247;29;20050;-81
2023/04/19 07:50:07;;;;;;;3.53;0.90;;;;;;;13.70;37.19;102075.97;4900482;29;20067;-80
2023/04/19 07:52:33;;;;;;;0.93;0.93;;;;;;;13.86;36.87;102082.13;4916301;29;20095;-80
2023/04/19 07:55:00;;;;;;;3.00;1.67;;;;;;;14.01;36.71;102075.97;4915989;29;20063;-80
2023/04/19 07:57:27;;;;;;;1.08;1.00;;;;;;;14.26;35.29;102070.69;4901271;29;20048;-80
2023/04/19 07:59:56;;;;;;;2.95;1.02;;;;;;;14.64;34.46;102075.00;4901069;29;20048;-81
2023/04/19 08:02:24;;;;;;;3.97;1.40;;;;;;;14.70;34.25;102072.38;4918006;29;20082;-79
2023/04/19 08:04:51;;;;;;;2.85;0.88;;;;;;;14.94;33.64;102060.84;4919077;29;20063;-80
2023/04/19 08:07:18;;;;;;;4.80;1.40;;;;;;;14.90;33.37;102064.41;4914744;29;20059;-81
2023/04/19 08:09:47;;;;;;;1.38;1.27;;;;;;;15.09;33.51;102066.94;4933806;29;20051;-81
2023/04/19 08:12:13;;;;;;;2.80;1.15;;;;;;;14.98;32.99;102061.69;4923562;29;20047;-80
2023/04/19 08:14:41;;;;;;;1.58;1.13;;;;;;;15.28;32.97;102059.78;4920073;29;20048;-80
2023/04/19 08:17:08;;;;;;;4.25;1.65;;;;;;;16.02;32.22;102051.31;4904186;29;20488;-81
2023/04/19 08:19:34;;;;;;;3.38;1.23;;;;;;;16.37;30.72;102039.53;4918532;29;20056;-81
2023/04/19 08:22:03;;;;;;;3.50;1.13;;;;;;;16.45;29.43;102052.66;4936653;29;20155;-81
2023/04/19 08:24:37;;;;;;;4.63;1.55;;;;;;;16.34;28.90;102036.94;4935680;29;20087;-81
2023/04/19 08:27:06;;;;;;;1.40;1.30;;;;;;;16.54;28.33;102040.22;4935090;29;20050;-81
2023/04/19 08:29:33;;;;;;;3.35;1.20;;;;;;;17.05;28.39;102041.38;4904727;29;20418;-81
2023/04/19 08:32:00;;;;;;;1.88;1.35;;;;;;;17.46;26.17;102044.34;4941284;29;20039;-81
2023/04/19 08:34:32;;;;;;;3.22;1.50;;;;;;;17.08;26.24;102035.16;4919557;29;20036;-80
2023/04/19 08:36:58;;;;;;;2.60;1.55;;;;;;;17.13;26.62;102034.22;4919597;29;20470;-83
2023/04/19 08:39:25;;;;;;;5.20;1.42;;;;;;;17.25;26.79;102032.28;4935342;29;20044;-81
2023/04/19 08:41:52;;;;;;;2.28;0.90;;;;;;;17.90;26.33;102024.19;4903439;29;20044;-81
2023/04/19 08:44:20;;;;;;;5.63;1.33;;;;;;;18.48;26.06;102026.66;4935593;29;20043;-81
2023/04/19 08:46:49;;;;;;;3.03;1.88;;;;;;;18.34;25.06;102027.81;4935406;29;20036;-82
2023/04/19 08:49:18;;;;;;;2.35;1.15;;;;;;;17.71;25.36;102018.31;4937133;29;20105;-82
2023/04/19 08:51:49;;;;;;;1.63;1.38;;;;;;;17.83;25.64;102020.78;4922737;29;20465;-81
2023/04/19 08:54:16;;;;;;;6.70;0.90;;;;;;;18.18;25.25;102013.97;4923033;29;20047;-80
2023/04/19 08:56:42;;;;;;;1.63;1.52;;;;;;;18.47;24.39;102019.59;4923360;29;20032;-82
2023/04/19 08:59:09;;;;;;;1.67;1.17;;;;;;;18.32;24.55;102005.75;4923242;29;20040;-81
2023/04/19 09:01:36;;;;;;;1.58;1.13;;;;;;;18.51;24.00;102014.22;4922705;29;20075;-80
2023/04/19 09:04:08;;;;;;;3.75;1.00;;;;;;;18.49;23.54;102005.41;4922133;29;20459;-81
2023/04/19 09:06:40;;;;;;;1.13;1.02;;;;;;;18.95;22.67;102008.88;4923134;29;20403;-81
2023/04/19 09:09:26;;;;;;;1.55;1.08;;;;;;;18.97;22.60;102009.72;4907558;29;20089;-81
2023/04/19 09:11:53;;;;;;;1.75;1.17;;;;;;;19.62;23.15;102008.19;4922460;29;20048;-81
2023/04/19 09:14:22;;;;;;;1.83;1.40;;;;;;;20.31;21.87;102001.97;4938737;29;20403;-81
2023/04/19 09:16:50;;;;;;;4.03;2.05;;;;;;;20.18;21.19;101998.81;4907470;29;20462;-80
2023/04/19 09:19:17;;;;;;;3.35;1.70;;;;;;;19.91;21.38;102001.28;4938456;29;20095;-81
2023/04/19 09:21:44;;;;;;;1.88;1.23;;;;;;;19.45;22.02;101990.03;4937743;29;20082;-80
2023/04/19 09:24:11;;;;;;;2.47;1.65;;;;;;;19.44;22.14;101987.41;4936470;29;20463;-81
2023/04/19 09:26:40;;;;;;;1.30;0.80;;;;;;;20.36;21.17;101978.75;4959473;29;20049;-80
2023/04/19 09:29:07;;;;;;;2.40;1.13;;;;;;;20.33;21.14;101982.38;4942455;29;20045;-80
2023/04/19 09:31:36;;;;;;;3.30;1.13;;;;;;;20.50;20.58;101986.34;4941332;29;20047;-81
2023/04/19 09:34:17;;;;;;;1.98;1.08;;;;;;;20.41;20.62;101982.16;4928506;29;20094;-80
2023/04/19 09:36:45;;;;;;;2.45;1.42;;;;;;;20.37;20.33;101969.03;4943880;29;20061;-81
2023/04/19 09:39:27;;;;;;;0.90;0.80;;;;;;;20.54;20.39;101968.53;4958757;29;20035;-80
2023/04/19 09:41:55;;;;;;;1.17;1.17;;;;;;;20.63;20.76;101954.94;4934609;29;20051;-81
2023/04/19 09:44:22;;;;;;;2.30;1.10;;;;;;;21.61;20.29;101953.59;4941887;29;20043;-81
2023/04/19 09:46:51;;;;;;;1.55;0.90;;;;;;;21.88;19.96;101952.69;4941744;29;20134;-81
2023/04/19 09:49:23;;;;;;;1.13;1.02;;;;;;;21.62;20.00;101943.81;4941943;29;20114;-81
2023/04/19 09:51:55;;;;;;;2.65;1.58;;;;;;;21.24;20.34;101948.63;4940979;29;20041;-81
2023/04/19 09:54:24;;;;;;;1.83;1.27;;;;;;;21.42;20.45;101940.00;4941391;29;20036;-82
2023/04/19 09:56:52;;;;;;;3.85;1.75;;;;;;;21.37;20.92;101943.72;4941297;29;20297;-81
2023/04/19 09:59:18;;;;;;;3.60;1.55;;;;;;;22.01;21.13;101921.97;4941104;29;20205;-81
2023/04/19 10:01:55;;;;;;;4.82;1.20;;;;;;;22.41;20.21;101923.19;4939550;29;20114;-81
2023/04/19 10:04:22;;;;;;;2.72;1.33;;;;;;;22.77;19.92;101914.63;4923942;29;20049;-81
2023/04/19 10:06:53;;;;;;;2.50;1.55;;;;;;;23.85;19.49;101897.66;4942244;29;20047;-81
2023/04/19 10:09:21;;;;;;;2.33;1.45;;;;;;;24.37;18.87;101899.78;4956363;29;20039;-81
2023/04/19 10:11:53;;;;;;;2.70;1.67;;;;;;;24.43;18.23;101910.16;4940837;29;20065;-81
2023/04/19 10:14:24;;;;;;;1.42;1.30;;;;;;;24.31;18.12;101900.91;4940606;29;20035;-81
2023/04/19 10:16:51;;;;;;;2.60;1.27;;;;;;;23.59;18.49;101895.22;4956337;29;20483;-82
2023/04/19 10:19:21;;;;;;;1.60;1.50;;;;;;;23.62;19.02;101886.19;4940179;29;20090;-81
2023/04/19 10:21:50;;;;;;;3.28;1.30;;;;;;;23.78;17.67;101883.72;4958919;29;20039;-80
2023/04/19 10:24:18;;;;;;;1.42;1.10;;;;;;;23.52;17.94;101880.41;4946524;29;20069;-80
2023/04/19 10:27:03;;;;;;;2.15;1.27;;;;;;;23.72;17.93;101874.16;4941415;29;20468;-82
2023/04/19 10:29:54;;;;;;;3.45;1.23;;;;;;;23.67;17.93;101859.25;4958271;29;20047;-80
2023/04/19 10:32:20;;;;;;;1.52;1.40;;;;;;;23.53;17.14;101857.19;4957218;29;20043;-81
2023/04/19 10:34:47;;;;;;;2.25;1.33;;;;;;;23.69;18.05;101858.25;4940052;29;20177;-81
2023/04/19 10:37:16;;;;;;;2.67;1.38;;;;;;;23.81;17.07;101858.66;4939764;29;20051;-82
2023/04/19 10:39:44;;;;;;;2.28;1.75;;;;;;;24.06;17.13;101851.22;4956340;29;20051;-82
2023/04/19 10:42:13;;;;;;;3.42;1.10;;;;;;;24.58;17.29;101847.88;4939876;29;20050;-81
2023/04/19 10:44:40;;;;;;;2.97;1.73;;;;;;;25.77;16.19;101846.31;4939609;29;20382;-82
2023/04/19 10:47:10;;;;;;;2.28;1.80;;;;;;;25.11;15.61;101837.25;4955929;29;20043;-81
2023/04/19 10:49:46;;;;;;;3.00;1.40;;;;;;;24.73;16.40;101832.91;4940240;29;20054;-82
2023/04/19 10:52:31;;;;;;;3.30;1.42;;;;;;;24.49;15.69;101834.09;4958856;29;20062;-82
2023/04/19 10:54:57;;;;;;;3.50;1.35;;;;;;;24.88;15.46;101833.06;4956012;29;20086;-80
2023/04/19 10:57:24;;;;;;;4.47;1.52;;;;;;;24.27;15.84;101827.97;4923272;29;20402;-81
2023/04/19 11:00:24;;;;;;;0.85;0.85;;;;;;;24.09;15.28;101820.78;4955647;29;20047;-80
2023/04/19 11:02:51;;;;;;;0.80;0.80;;;;;;;23.90;15.41;101813.66;4955291;29;20067;-80
2023/04/19 11:05:17;;;;;;;1.48;1.27;;;;;;;24.40;14.84;101816.66;4939470;29;20062;-80
2023/04/19 11:07:45;;;;;;;1.52;1.15;;;;;;;24.20;15.11;101822.97;4939226;29;20047;-82
2023/04/19 11:10:12;;;;;;;2.42;1.27;;;;;;;23.88;15.33;101810.13;4955162;29;20134;-80
2023/04/19 11:12:43;;;;;;;2.05;0.98;;;;;;;24.43;15.62;101809.34;4938921;29;20070;-81
2023/04/19 11:15:10;;;;;;;1.77;1.52;;;;;;;24.71;14.69;101802.63;4955600;29;20064;-81
2023/04/19 11:17:38;;;;;;;2.38;1.33;;;;;;;24.56;15.38;101800.69;4955647;29;20051;-80
2023/04/19 11:20:09;;;;;;;1.42;1.30;;;;;;;24.58;15.38;101797.00;4955076;29;20062;-80
2023/04/19 11:22:42;;;;;;;1.50;1.25;;;;;;;24.06;15.67;101796.88;4939714;29;20130;-80
2023/04/19 11:25:20;;;;;;;1.67;1.55;;;;;;;24.60;15.33;101783.53;4939105;29;20075;-80
2023/04/19 11:27:52;;;;;;;1.10;1.08;;;;;;;25.72;15.00;101782.22;4923542;29;20147;-82
2023/04/19 11:30:22;;;;;;;1.40;1.30;;;;;;;25.54;14.69;101778.72;4938935;29;20050;-80
2023/04/19 11:32:51;;;;;;;2.50;1.75;;;;;;;24.89;15.37;101787.44;4954922;29;20285;-81